sensor_id;sensor_type;location;lat;lon;timestamp;P1;durP1;ratioP1;P2;durP2;ratioP2
9667;SDS011;4872;48.316;10.650;2022-08-21T04:09:24;6.43;;;4.43;;
9667;SDS011;4872;48.316;10.650;2022-08-21T04:11:52;4.10;;;3.70;;
9667;SDS011;4872;48.316;10.650;2022-08-21T04:14:19;3.90;;;3.50;;
9667;SDS011;4872;48.316;10.650;2022-08-21T04:16:47;4.37;;;3.97;;
9667;SDS011;4872;48.316;10.650;2022-08-21T04:19:13;5.27;;;4.77;;
9667;SDS011;4872;48.316;10.650;2022-08-21T04:21:41;4.20;;;3.80;;
9667;SDS011;4872;48.316;10.650;2022-08-21T04:24:08;4.20;;;3.83;;
9667;SDS011;4872;48.316;10.650;2022-08-21T04:26:37;5.60;;;4.30;;
9667;SDS011;4872;48.316;10.650;2022-08-21T04:29:05;4.60;;;4.20;;
9667;SDS011;4872;48.316;10.650;2022-08-21T04:31:32;4.00;;;3.50;;
9667;SDS011;4872;48.316;10.650;2022-08-21T04:33:59;8.90;;;4.37;;
9667;SDS011;4872;48.316;10.650;2022-08-21T04:36:26;4.70;;;4.13;;
9667;SDS011;4872;48.316;10.650;2022-08-21T04:38:52;3.77;;;3.37;;
9667;SDS011;4872;48.316;10.650;2022-08-21T04:41:19;3.50;;;3.20;;
9667;SDS011;4872;48.316;10.650;2022-08-21T04:43:47;3.57;;;3.27;;
9667;SDS011;4872;48.316;10.650;2022-08-21T04:46:14;4.30;;;3.23;;
9667;SDS011;4872;48.316;10.650;2022-08-21T04:48:41;4.43;;;4.07;;
9667;SDS011;4872;48.316;10.650;2022-08-21T04:51:09;5.97;;;4.17;;
9667;SDS011;4872;48.316;10.650;2022-08-21T04:53:39;4.17;;;3.40;;
9667;SDS011;4872;48.316;10.650;2022-08-21T04:56:12;4.87;;;3.40;;
9667;SDS011;4872;48.316;10.650;2022-08-21T04:58:42;5.17;;;3.77;;
9667;SDS011;4872;48.316;10.650;2022-08-21T05:01:11;3.80;;;3.47;;
9667;SDS011;4872;48.316;10.650;2022-08-21T05:03:41;4.67;;;3.67;;
9667;SDS011;4872;48.316;10.650;2022-08-21T05:06:09;4.30;;;3.90;;
9667;SDS011;4872;48.316;10.650;2022-08-21T05:08:38;4.93;;;3.80;;
9667;SDS011;4872;48.316;10.650;2022-08-21T05:11:07;4.00;;;3.70;;
9667;SDS011;4872;48.316;10.650;2022-08-21T05:13:34;4.50;;;4.10;;
9667;SDS011;4872;48.316;10.650;2022-08-21T05:16:02;4.60;;;4.20;;
9667;SDS011;4872;48.316;10.650;2022-08-21T05:18:31;5.23;;;4.43;;
9667;SDS011;4872;48.316;10.650;2022-08-21T05:20:58;5.03;;;4.27;;
9667;SDS011;4872;48.316;10.650;2022-08-21T05:23:25;5.53;;;5.00;;
9667;SDS011;4872;48.316;10.650;2022-08-21T05:25:52;5.37;;;4.87;;
9667;SDS011;4872;48.316;10.650;2022-08-21T05:28:20;5.27;;;4.80;;
9667;SDS011;4872;48.316;10.650;2022-08-21T05:30:47;5.80;;;4.93;;
9667;SDS011;4872;48.316;10.650;2022-08-21T05:33:13;6.80;;;4.70;;
9667;SDS011;4872;48.316;10.650;2022-08-21T05:35:42;5.87;;;5.20;;
9667;SDS011;4872;48.316;10.650;2022-08-21T05:38:08;5.90;;;5.30;;
9667;SDS011;4872;48.316;10.650;2022-08-21T05:40:35;6.33;;;5.13;;
9667;SDS011;4872;48.316;10.650;2022-08-21T05:43:02;4.97;;;4.57;;
9667;SDS011;4872;48.316;10.650;2022-08-21T05:45:30;5.43;;;4.93;;
9667;SDS011;4872;48.316;10.650;2022-08-21T05:48:04;5.27;;;4.77;;
9667;SDS011;4872;48.316;10.650;2022-08-21T05:50:32;7.03;;;5.80;;
9667;SDS011;4872;48.316;10.650;2022-08-21T05:53:00;5.30;;;4.77;;
9667;SDS011;4872;48.316;10.650;2022-08-21T05:55:26;6.33;;;5.03;;
9667;SDS011;4872;48.316;10.650;2022-08-21T05:57:53;5.70;;;5.20;;
9667;SDS011;4872;48.316;10.650;2022-08-21T06:00:20;6.53;;;4.87;;
9667;SDS011;4872;48.316;10.650;2022-08-21T06:02:48;6.27;;;4.57;;
9667;SDS011;4872;48.316;10.650;2022-08-21T06:05:15;4.77;;;4.27;;
9667;SDS011;4872;48.316;10.650;2022-08-21T06:07:42;9.47;;;5.60;;
9667;SDS011;4872;48.316;10.650;2022-08-21T06:10:10;6.67;;;5.30;;
9667;SDS011;4872;48.316;10.650;2022-08-21T06:12:37;6.90;;;5.40;;
9667;SDS011;4872;48.316;10.650;2022-08-21T06:15:04;5.70;;;5.10;;
9667;SDS011;4872;48.316;10.650;2022-08-21T06:17:32;6.10;;;5.50;;
9667;SDS011;4872;48.316;10.650;2022-08-21T06:19:58;6.30;;;4.80;;
9667;SDS011;4872;48.316;10.650;2022-08-21T06:22:25;4.37;;;3.97;;
9667;SDS011;4872;48.316;10.650;2022-08-21T06:24:53;4.60;;;4.20;;
9667;SDS011;4872;48.316;10.650;2022-08-21T06:27:21;4.93;;;4.20;;
9667;SDS011;4872;48.316;10.650;2022-08-21T06:29:48;4.50;;;4.10;;
9667;SDS011;4872;48.316;10.650;2022-08-21T06:32:15;4.40;;;4.00;;
9667;SDS011;4872;48.316;10.650;2022-08-21T06:34:42;3.93;;;3.53;;
9667;SDS011;4872;48.316;10.650;2022-08-21T06:37:09;4.23;;;3.63;;
9667;SDS011;4872;48.316;10.650;2022-08-21T06:39:35;5.03;;;3.97;;
9667;SDS011;4872;48.316;10.650;2022-08-21T06:42:02;3.40;;;3.10;;
9667;SDS011;4872;48.316;10.650;2022-08-21T06:44:31;3.57;;;2.97;;
9667;SDS011;4872;48.316;10.650;2022-08-21T06:46:58;5.60;;;3.57;;
9667;SDS011;4872;48.316;10.650;2022-08-21T06:49:24;3.53;;;3.17;;
9667;SDS011;4872;48.316;10.650;2022-08-21T06:51:51;6.33;;;3.37;;
9667;SDS011;4872;48.316;10.650;2022-08-21T06:54:18;3.30;;;3.00;;
9667;SDS011;4872;48.316;10.650;2022-08-21T06:56:44;3.83;;;2.73;;
9667;SDS011;4872;48.316;10.650;2022-08-21T06:59:11;4.40;;;3.13;;
9667;SDS011;4872;48.316;10.650;2022-08-21T07:01:39;3.00;;;2.70;;
9667;SDS011;4872;48.316;10.650;2022-08-21T07:04:06;5.03;;;3.13;;
9667;SDS011;4872;48.316;10.650;2022-08-21T07:06:33;3.93;;;3.13;;
9667;SDS011;4872;48.316;10.650;2022-08-21T07:09:00;3.40;;;3.10;;
9667;SDS011;4872;48.316;10.650;2022-08-21T07:11:27;5.37;;;2.97;;
9667;SDS011;4872;48.316;10.650;2022-08-21T07:13:54;3.90;;;3.00;;
9667;SDS011;4872;48.316;10.650;2022-08-21T07:16:21;4.13;;;3.30;;
9667;SDS011;4872;48.316;10.650;2022-08-21T07:18:50;4.57;;;3.27;;
9667;SDS011;4872;48.316;10.650;2022-08-21T07:21:17;4.00;;;3.30;;
9667;SDS011;4872;48.316;10.650;2022-08-21T07:23:44;5.10;;;2.93;;
9667;SDS011;4872;48.316;10.650;2022-08-21T07:26:13;4.67;;;3.23;;
9667;SDS011;4872;48.316;10.650;2022-08-21T07:28:42;3.53;;;3.23;;
9667;SDS011;4872;48.316;10.650;2022-08-21T07:31:09;3.30;;;3.00;;
9667;SDS011;4872;48.316;10.650;2022-08-21T07:33:39;3.53;;;3.17;;
9667;SDS011;4872;48.316;10.650;2022-08-21T07:36:08;5.27;;;3.57;;
9667;SDS011;4872;48.316;10.650;2022-08-21T07:38:35;3.70;;;3.20;;
9667;SDS011;4872;48.316;10.650;2022-08-21T07:41:02;4.60;;;3.13;;
9667;SDS011;4872;48.316;10.650;2022-08-21T07:43:36;6.30;;;3.43;;
9667;SDS011;4872;48.316;10.650;2022-08-21T07:46:03;3.90;;;3.50;;
9667;SDS011;4872;48.316;10.650;2022-08-21T07:48:30;3.50;;;3.17;;
9667;SDS011;4872;48.316;10.650;2022-08-21T07:50:56;4.87;;;3.27;;
9667;SDS011;4872;48.316;10.650;2022-08-21T07:53:26;3.97;;;3.10;;
9667;SDS011;4872;48.316;10.650;2022-08-21T07:55:53;5.33;;;3.73;;
9667;SDS011;4872;48.316;10.650;2022-08-21T07:58:23;5.77;;;3.43;;
9667;SDS011;4872;48.316;10.650;2022-08-21T08:00:50;4.53;;;4.10;;
9667;SDS011;4872;48.316;10.650;2022-08-21T08:03:16;4.40;;;4.00;;
9667;SDS011;4872;48.316;10.650;2022-08-21T08:05:43;4.07;;;3.53;;
9667;SDS011;4872;48.316;10.650;2022-08-21T08:08:10;4.67;;;3.73;;
9667;SDS011;4872;48.316;10.650;2022-08-21T08:10:38;5.60;;;4.10;;
9667;SDS011;4872;48.316;10.650;2022-08-21T08:13:05;4.50;;;4.10;;
9667;SDS011;4872;48.316;10.650;2022-08-21T08:15:32;6.80;;;4.30;;
9667;SDS011;4872;48.316;10.650;2022-08-21T08:17:58;4.17;;;3.80;;
9667;SDS011;4872;48.316;10.650;2022-08-21T08:20:26;5.03;;;4.50;;
9667;SDS011;4872;48.316;10.650;2022-08-21T08:22:54;4.40;;;4.00;;
9667;SDS011;4872;48.316;10.650;2022-08-21T08:25:21;4.90;;;4.50;;
9667;SDS011;4872;48.316;10.650;2022-08-21T08:27:50;6.03;;;4.07;;
9667;SDS011;4872;48.316;10.650;2022-08-21T08:30:18;6.67;;;4.33;;
9667;SDS011;4872;48.316;10.650;2022-08-21T08:32:46;4.67;;;4.17;;
9667;SDS011;4872;48.316;10.650;2022-08-21T08:35:14;4.73;;;4.17;;
9667;SDS011;4872;48.316;10.650;2022-08-21T08:37:42;5.87;;;5.00;;
9667;SDS011;4872;48.316;10.650;2022-08-21T08:40:11;6.07;;;4.33;;
9667;SDS011;4872;48.316;10.650;2022-08-21T08:42:40;5.37;;;4.73;;
9667;SDS011;4872;48.316;10.650;2022-08-21T08:45:10;6.53;;;4.80;;
9667;SDS011;4872;48.316;10.650;2022-08-21T08:47:43;4.87;;;4.47;;
9667;SDS011;4872;48.316;10.650;2022-08-21T08:50:15;5.93;;;4.83;;
9667;SDS011;4872;48.316;10.650;2022-08-21T08:52:47;5.67;;;4.80;;
9667;SDS011;4872;48.316;10.650;2022-08-21T08:55:18;4.77;;;4.37;;
9667;SDS011;4872;48.316;10.650;2022-08-21T08:57:49;7.30;;;4.57;;
9667;SDS011;4872;48.316;10.650;2022-08-21T09:00:20;5.53;;;4.80;;
9667;SDS011;4872;48.316;10.650;2022-08-21T09:02:47;5.57;;;4.30;;
9667;SDS011;4872;48.316;10.650;2022-08-21T09:05:21;5.00;;;4.50;;
9667;SDS011;4872;48.316;10.650;2022-08-21T09:07:58;4.63;;;4.10;;
9667;SDS011;4872;48.316;10.650;2022-08-21T09:10:43;5.63;;;4.50;;
9667;SDS011;4872;48.316;10.650;2022-08-21T09:13:19;5.57;;;4.27;;
9667;SDS011;4872;48.316;10.650;2022-08-21T09:15:53;11.50;;;4.50;;
9667;SDS011;4872;48.316;10.650;2022-08-21T09:18:30;4.50;;;3.93;;
9667;SDS011;4872;48.316;10.650;2022-08-21T09:21:07;5.87;;;4.83;;
9667;SDS011;4872;48.316;10.650;2022-08-21T09:23:43;7.30;;;4.20;;
9667;SDS011;4872;48.316;10.650;2022-08-21T09:26:17;5.97;;;4.10;;
9667;SDS011;4872;48.316;10.650;2022-08-21T09:28:45;4.63;;;4.13;;
9667;SDS011;4872;48.316;10.650;2022-08-21T09:31:21;5.07;;;4.57;;
9667;SDS011;4872;48.316;10.650;2022-08-21T09:33:49;6.47;;;4.37;;
9667;SDS011;4872;48.316;10.650;2022-08-21T09:36:22;5.47;;;4.57;;
9667;SDS011;4872;48.316;10.650;2022-08-21T09:38:52;5.43;;;4.00;;
9667;SDS011;4872;48.316;10.650;2022-08-21T09:41:25;4.50;;;4.10;;
9667;SDS011;4872;48.316;10.650;2022-08-21T09:44:10;5.73;;;4.23;;
9667;SDS011;4872;48.316;10.650;2022-08-21T09:46:58;4.93;;;4.20;;
9667;SDS011;4872;48.316;10.650;2022-08-21T09:49:29;4.40;;;3.90;;
9667;SDS011;4872;48.316;10.650;2022-08-21T09:51:57;5.73;;;4.13;;
9667;SDS011;4872;48.316;10.650;2022-08-21T09:54:27;4.83;;;3.70;;
9667;SDS011;4872;48.316;10.650;2022-08-21T09:56:58;6.13;;;4.43;;
9667;SDS011;4872;48.316;10.650;2022-08-21T09:59:44;5.73;;;3.70;;
9667;SDS011;4872;48.316;10.650;2022-08-21T10:02:21;4.57;;;3.93;;
9667;SDS011;4872;48.316;10.650;2022-08-21T10:04:51;7.73;;;4.43;;
9667;SDS011;4872;48.316;10.650;2022-08-21T10:07:22;5.53;;;4.00;;
9667;SDS011;4872;48.316;10.650;2022-08-21T10:09:57;3.77;;;3.47;;
9667;SDS011;4872;48.316;10.650;2022-08-21T10:12:25;4.10;;;3.63;;
9667;SDS011;4872;48.316;10.650;2022-08-21T10:14:59;4.57;;;3.83;;
9667;SDS011;4872;48.316;10.650;2022-08-21T10:17:37;4.67;;;3.83;;
9667;SDS011;4872;48.316;10.650;2022-08-21T10:20:17;4.83;;;3.63;;
9667;SDS011;4872;48.316;10.650;2022-08-21T10:23:02;5.60;;;4.33;;
9667;SDS011;4872;48.316;10.650;2022-08-21T10:25:37;5.87;;;4.10;;
9667;SDS011;4872;48.316;10.650;2022-08-21T10:28:16;5.90;;;4.30;;
9667;SDS011;4872;48.316;10.650;2022-08-21T10:30:51;5.27;;;4.13;;
9667;SDS011;4872;48.316;10.650;2022-08-21T10:33:30;5.73;;;3.97;;
9667;SDS011;4872;48.316;10.650;2022-08-21T10:36:06;6.87;;;3.57;;
9667;SDS011;4872;48.316;10.650;2022-08-21T10:41:52;5.37;;;3.30;;
9667;SDS011;4872;48.316;10.650;2022-08-21T10:44:48;6.23;;;3.50;;
9667;SDS011;4872;48.316;10.650;2022-08-21T10:47:24;4.60;;;3.10;;
9667;SDS011;4872;48.316;10.650;2022-08-21T10:50:00;4.33;;;3.40;;
9667;SDS011;4872;48.316;10.650;2022-08-21T10:52:45;6.17;;;2.90;;
9667;SDS011;4872;48.316;10.650;2022-08-21T10:55:26;3.83;;;2.90;;
9667;SDS011;4872;48.316;10.650;2022-08-21T10:58:04;5.73;;;3.33;;
9667;SDS011;4872;48.316;10.650;2022-08-21T11:00:36;7.03;;;3.37;;
9667;SDS011;4872;48.316;10.650;2022-08-21T11:03:10;3.47;;;3.17;;
9667;SDS011;4872;48.316;10.650;2022-08-21T11:05:41;4.03;;;3.00;;
9667;SDS011;4872;48.316;10.650;2022-08-21T11:08:15;4.83;;;2.93;;
9667;SDS011;4872;48.316;10.650;2022-08-21T11:10:48;6.07;;;3.47;;
9667;SDS011;4872;48.316;10.650;2022-08-21T11:13:19;5.50;;;2.93;;
9667;SDS011;4872;48.316;10.650;2022-08-21T11:15:54;4.33;;;3.10;;
9667;SDS011;4872;48.316;10.650;2022-08-21T11:18:24;4.13;;;3.50;;
9667;SDS011;4872;48.316;10.650;2022-08-21T11:20:59;3.67;;;2.80;;
9667;SDS011;4872;48.316;10.650;2022-08-21T11:23:33;3.27;;;2.93;;
9667;SDS011;4872;48.316;10.650;2022-08-21T11:26:07;3.30;;;2.93;;
9667;SDS011;4872;48.316;10.650;2022-08-21T11:28:39;4.77;;;3.30;;
9667;SDS011;4872;48.316;10.650;2022-08-21T11:31:14;4.33;;;2.90;;
9667;SDS011;4872;48.316;10.650;2022-08-21T11:33:55;3.40;;;3.07;;
9667;SDS011;4872;48.316;10.650;2022-08-21T11:36:33;4.33;;;2.87;;
9667;SDS011;4872;48.316;10.650;2022-08-21T11:39:06;3.63;;;2.93;;
9667;SDS011;4872;48.316;10.650;2022-08-21T11:41:43;4.93;;;3.00;;
9667;SDS011;4872;48.316;10.650;2022-08-21T11:44:17;3.93;;;3.20;;
9667;SDS011;4872;48.316;10.650;2022-08-21T11:46:49;3.40;;;3.10;;
9667;SDS011;4872;48.316;10.650;2022-08-21T11:49:32;4.53;;;3.03;;
9667;SDS011;4872;48.316;10.650;2022-08-21T11:52:12;4.47;;;2.50;;
9667;SDS011;4872;48.316;10.650;2022-08-21T11:54:44;5.73;;;3.37;;
9667;SDS011;4872;48.316;10.650;2022-08-21T11:57:16;4.93;;;3.00;;
9667;SDS011;4872;48.316;10.650;2022-08-21T11:59:47;3.03;;;2.73;;
9667;SDS011;4872;48.316;10.650;2022-08-21T12:02:19;3.53;;;2.97;;
9667;SDS011;4872;48.316;10.650;2022-08-21T12:04:49;5.13;;;3.10;;
9667;SDS011;4872;48.316;10.650;2022-08-21T12:07:30;3.57;;;2.80;;
9667;SDS011;4872;48.316;10.650;2022-08-21T12:10:00;3.87;;;2.83;;
9667;SDS011;4872;48.316;10.650;2022-08-21T12:12:28;5.90;;;3.07;;
9667;SDS011;4872;48.316;10.650;2022-08-21T12:17:53;3.90;;;2.80;;
9667;SDS011;4872;48.316;10.650;2022-08-21T12:20:26;3.77;;;2.83;;
9667;SDS011;4872;48.316;10.650;2022-08-21T12:23:05;4.67;;;2.60;;
9667;SDS011;4872;48.316;10.650;2022-08-21T12:25:43;4.03;;;2.67;;
9667;SDS011;4872;48.316;10.650;2022-08-21T12:28:13;4.23;;;2.90;;
9667;SDS011;4872;48.316;10.650;2022-08-21T12:30:42;3.00;;;2.70;;
9667;SDS011;4872;48.316;10.650;2022-08-21T12:33:21;4.10;;;2.60;;
9667;SDS011;4872;48.316;10.650;2022-08-21T12:35:52;2.57;;;2.37;;
9667;SDS011;4872;48.316;10.650;2022-08-21T12:38:32;3.77;;;3.07;;
9667;SDS011;4872;48.316;10.650;2022-08-21T12:41:10;2.90;;;2.57;;
9667;SDS011;4872;48.316;10.650;2022-08-21T12:43:42;3.10;;;2.43;;
9667;SDS011;4872;48.316;10.650;2022-08-21T12:46:14;3.13;;;2.80;;
9667;SDS011;4872;48.316;10.650;2022-08-21T12:48:44;5.57;;;2.67;;
9667;SDS011;4872;48.316;10.650;2022-08-21T12:51:15;4.27;;;2.47;;
9667;SDS011;4872;48.316;10.650;2022-08-21T12:53:49;3.47;;;2.60;;
9667;SDS011;4872;48.316;10.650;2022-08-21T12:56:19;2.53;;;2.33;;
9667;SDS011;4872;48.316;10.650;2022-08-21T12:58:48;3.43;;;2.77;;
9667;SDS011;4872;48.316;10.650;2022-08-21T13:01:17;4.40;;;2.60;;
9667;SDS011;4872;48.316;10.650;2022-08-21T13:03:48;2.70;;;2.50;;
9667;SDS011;4872;48.316;10.650;2022-08-21T13:06:17;3.87;;;2.40;;
9667;SDS011;4872;48.316;10.650;2022-08-21T13:08:46;3.40;;;2.83;;
9667;SDS011;4872;48.316;10.650;2022-08-21T13:11:16;4.40;;;2.83;;
9667;SDS011;4872;48.316;10.650;2022-08-21T13:13:48;3.33;;;2.60;;
9667;SDS011;4872;48.316;10.650;2022-08-21T13:16:18;4.23;;;2.83;;
9667;SDS011;4872;48.316;10.650;2022-08-21T13:18:52;3.20;;;2.60;;
9667;SDS011;4872;48.316;10.650;2022-08-21T13:21:20;4.20;;;2.50;;
9667;SDS011;4872;48.316;10.650;2022-08-21T13:23:47;3.80;;;2.77;;
9667;SDS011;4872;48.316;10.650;2022-08-21T13:26:16;3.30;;;2.50;;
9667;SDS011;4872;48.316;10.650;2022-08-21T13:28:45;2.33;;;2.13;;
9667;SDS011;4872;48.316;10.650;2022-08-21T13:31:13;3.53;;;2.70;;
9667;SDS011;4872;48.316;10.650;2022-08-21T13:33:44;3.67;;;2.60;;
9667;SDS011;4872;48.316;10.650;2022-08-21T13:36:13;4.53;;;3.00;;
9667;SDS011;4872;48.316;10.650;2022-08-21T13:38:42;3.07;;;2.77;;
9667;SDS011;4872;48.316;10.650;2022-08-21T13:41:20;4.50;;;2.70;;
9667;SDS011;4872;48.316;10.650;2022-08-21T13:43:56;3.77;;;2.97;;
9667;SDS011;4872;48.316;10.650;2022-08-21T13:46:24;3.90;;;2.37;;
9667;SDS011;4872;48.316;10.650;2022-08-21T13:48:54;3.63;;;2.20;;
9667;SDS011;4872;48.316;10.650;2022-08-21T13:51:22;4.53;;;2.40;;
9667;SDS011;4872;48.316;10.650;2022-08-21T13:53:50;2.67;;;2.33;;
9667;SDS011;4872;48.316;10.650;2022-08-21T13:56:23;3.57;;;2.90;;
9667;SDS011;4872;48.316;10.650;2022-08-21T13:58:51;2.60;;;2.30;;
9667;SDS011;4872;48.316;10.650;2022-08-21T14:01:21;3.85;;;2.58;;
9667;SDS011;4872;48.316;10.650;2022-08-21T14:03:52;5.03;;;2.60;;
9667;SDS011;4872;48.316;10.650;2022-08-21T14:06:23;3.30;;;2.88;;
9667;SDS011;4872;48.316;10.650;2022-08-21T14:08:53;3.00;;;2.40;;
9667;SDS011;4872;48.316;10.650;2022-08-21T14:11:23;3.23;;;2.60;;
9667;SDS011;4872;48.316;10.650;2022-08-21T14:13:56;3.95;;;2.42;;
9667;SDS011;4872;48.316;10.650;2022-08-21T14:16:25;3.58;;;2.70;;
9667;SDS011;4872;48.316;10.650;2022-08-21T14:19:07;3.40;;;2.57;;
9667;SDS011;4872;48.316;10.650;2022-08-21T14:21:36;4.53;;;2.45;;
9667;SDS011;4872;48.316;10.650;2022-08-21T14:24:08;2.67;;;2.08;;
9667;SDS011;4872;48.316;10.650;2022-08-21T14:26:43;3.20;;;2.35;;
9667;SDS011;4872;48.316;10.650;2022-08-21T14:29:13;3.47;;;2.60;;
9667;SDS011;4872;48.316;10.650;2022-08-21T14:31:42;4.35;;;2.75;;
9667;SDS011;4872;48.316;10.650;2022-08-21T14:34:10;3.58;;;2.70;;
9667;SDS011;4872;48.316;10.650;2022-08-21T14:36:38;2.85;;;2.30;;
9667;SDS011;4872;48.316;10.650;2022-08-21T14:39:05;3.90;;;2.50;;
9667;SDS011;4872;48.316;10.650;2022-08-21T14:41:31;3.33;;;2.47;;
9667;SDS011;4872;48.316;10.650;2022-08-21T14:43:59;3.45;;;2.28;;
9667;SDS011;4872;48.316;10.650;2022-08-21T14:46:27;2.80;;;2.60;;
9667;SDS011;4872;48.316;10.650;2022-08-21T14:48:56;4.18;;;2.83;;
9667;SDS011;4872;48.316;10.650;2022-08-21T14:51:24;3.35;;;2.47;;
9667;SDS011;4872;48.316;10.650;2022-08-21T14:53:50;3.58;;;2.60;;
9667;SDS011;4872;48.316;10.650;2022-08-21T14:56:17;2.53;;;2.10;;
9667;SDS011;4872;48.316;10.650;2022-08-21T14:58:48;2.72;;;2.03;;
9667;SDS011;4872;48.316;10.650;2022-08-21T15:01:18;2.78;;;1.98;;
9667;SDS011;4872;48.316;10.650;2022-08-21T15:03:47;4.00;;;2.30;;
9667;SDS011;4872;48.316;10.650;2022-08-21T15:06:15;7.40;;;2.60;;
9667;SDS011;4872;48.316;10.650;2022-08-21T15:08:43;2.60;;;2.40;;
9667;SDS011;4872;48.316;10.650;2022-08-21T15:11:11;2.10;;;1.90;;
9667;SDS011;4872;48.316;10.650;2022-08-21T15:13:41;2.83;;;2.15;;
9667;SDS011;4872;48.316;10.650;2022-08-21T15:16:09;2.85;;;2.10;;
9667;SDS011;4872;48.316;10.650;2022-08-21T15:18:39;2.97;;;2.30;;
9667;SDS011;4872;48.316;10.650;2022-08-21T15:21:06;3.13;;;2.58;;
9667;SDS011;4872;48.316;10.650;2022-08-21T15:23:33;3.47;;;2.45;;
9667;SDS011;4872;48.316;10.650;2022-08-21T15:26:00;2.95;;;1.88;;
9667;SDS011;4872;48.316;10.650;2022-08-21T15:28:27;6.80;;;2.53;;
9667;SDS011;4872;48.316;10.650;2022-08-21T15:30:54;2.80;;;2.20;;
9667;SDS011;4872;48.316;10.650;2022-08-21T15:33:21;2.63;;;2.30;;
9667;SDS011;4872;48.316;10.650;2022-08-21T15:35:49;1.63;;;1.52;;
9667;SDS011;4872;48.316;10.650;2022-08-21T15:38:16;2.47;;;2.28;;
9667;SDS011;4872;48.316;10.650;2022-08-21T15:40:43;2.50;;;2.20;;
9667;SDS011;4872;48.316;10.650;2022-08-21T15:43:14;2.70;;;2.00;;
9667;SDS011;4872;48.316;10.650;2022-08-21T15:45:46;2.30;;;2.10;;
9667;SDS011;4872;48.316;10.650;2022-08-21T15:48:13;3.88;;;2.33;;
9667;SDS011;4872;48.316;10.650;2022-08-21T15:50:40;2.22;;;2.03;;
9667;SDS011;4872;48.316;10.650;2022-08-21T15:53:08;3.70;;;2.40;;
9667;SDS011;4872;48.316;10.650;2022-08-21T15:55:35;3.30;;;2.72;;
9667;SDS011;4872;48.316;10.650;2022-08-21T15:58:01;3.97;;;2.70;;
9667;SDS011;4872;48.316;10.650;2022-08-21T16:00:31;3.67;;;2.33;;
9667;SDS011;4872;48.316;10.650;2022-08-21T16:03:00;2.72;;;2.10;;
9667;SDS011;4872;48.316;10.650;2022-08-21T16:05:29;2.45;;;2.25;;
9667;SDS011;4872;48.316;10.650;2022-08-21T16:07:56;3.10;;;2.20;;
9667;SDS011;4872;48.316;10.650;2022-08-21T16:10:25;3.92;;;2.50;;
9667;SDS011;4872;48.316;10.650;2022-08-21T16:12:53;2.75;;;2.47;;
9667;SDS011;4872;48.316;10.650;2022-08-21T16:15:23;3.38;;;2.17;;
9667;SDS011;4872;48.316;10.650;2022-08-21T16:17:51;3.08;;;2.70;;
9667;SDS011;4872;48.316;10.650;2022-08-21T16:20:19;4.28;;;2.30;;
9667;SDS011;4872;48.316;10.650;2022-08-21T16:22:48;12.40;;;3.20;;
9667;SDS011;4872;48.316;10.650;2022-08-21T16:25:15;7.88;;;2.78;;
9667;SDS011;4872;48.316;10.650;2022-08-21T16:27:44;4.28;;;2.63;;
9667;SDS011;4872;48.316;10.650;2022-08-21T16:30:13;2.70;;;2.00;;
9667;SDS011;4872;48.316;10.650;2022-08-21T16:32:41;4.45;;;2.38;;
9667;SDS011;4872;48.316;10.650;2022-08-21T16:35:09;3.08;;;2.28;;
9667;SDS011;4872;48.316;10.650;2022-08-21T16:37:38;4.45;;;2.38;;
9667;SDS011;4872;48.316;10.650;2022-08-21T16:40:06;3.97;;;2.50;;
9667;SDS011;4872;48.316;10.650;2022-08-21T16:42:34;3.92;;;2.78;;
9667;SDS011;4872;48.316;10.650;2022-08-21T16:45:03;3.25;;;2.40;;
9667;SDS011;4872;48.316;10.650;2022-08-21T16:47:32;3.15;;;2.47;;
9667;SDS011;4872;48.316;10.650;2022-08-21T16:49:58;3.08;;;2.45;;
9667;SDS011;4872;48.316;10.650;2022-08-21T16:52:25;2.80;;;2.17;;
9667;SDS011;4872;48.316;10.650;2022-08-21T16:54:52;3.20;;;2.60;;
9667;SDS011;4872;48.316;10.650;2022-08-21T16:57:19;3.75;;;2.75;;
9667;SDS011;4872;48.316;10.650;2022-08-21T16:59:45;2.95;;;2.20;;
9667;SDS011;4872;48.316;10.650;2022-08-21T17:02:17;4.57;;;2.70;;
9667;SDS011;4872;48.316;10.650;2022-08-21T17:04:49;3.70;;;2.70;;
9667;SDS011;4872;48.316;10.650;2022-08-21T17:07:16;2.55;;;2.35;;
9667;SDS011;4872;48.316;10.650;2022-08-21T17:09:43;2.55;;;2.30;;
9667;SDS011;4872;48.316;10.650;2022-08-21T17:12:09;4.65;;;2.80;;
9667;SDS011;4872;48.316;10.650;2022-08-21T17:14:37;5.40;;;2.90;;
9667;SDS011;4872;48.316;10.650;2022-08-21T17:17:04;2.97;;;2.67;;
9667;SDS011;4872;48.316;10.650;2022-08-21T17:19:35;4.47;;;2.40;;
9667;SDS011;4872;48.316;10.650;2022-08-21T17:22:02;3.47;;;2.30;;
9667;SDS011;4872;48.316;10.650;2022-08-21T17:24:30;2.90;;;2.27;;
9667;SDS011;4872;48.316;10.650;2022-08-21T17:26:56;2.60;;;2.40;;
9667;SDS011;4872;48.316;10.650;2022-08-21T17:29:24;4.07;;;2.80;;
9667;SDS011;4872;48.316;10.650;2022-08-21T17:31:54;2.80;;;2.60;;
9667;SDS011;4872;48.316;10.650;2022-08-21T17:34:21;4.93;;;2.73;;
9667;SDS011;4872;48.316;10.650;2022-08-21T17:36:50;2.87;;;2.50;;
9667;SDS011;4872;48.316;10.650;2022-08-21T17:39:17;3.13;;;2.83;;
9667;SDS011;4872;48.316;10.650;2022-08-21T17:41:44;4.17;;;2.63;;
9667;SDS011;4872;48.316;10.650;2022-08-21T17:44:11;4.00;;;2.60;;
9667;SDS011;4872;48.316;10.650;2022-08-21T17:46:41;3.27;;;2.50;;
9667;SDS011;4872;48.316;10.650;2022-08-21T17:49:08;3.60;;;2.63;;
9667;SDS011;4872;48.316;10.650;2022-08-21T17:51:35;2.97;;;2.40;;
9667;SDS011;4872;48.316;10.650;2022-08-21T17:54:03;4.57;;;2.20;;
9667;SDS011;4872;48.316;10.650;2022-08-21T17:56:32;6.53;;;2.80;;
9667;SDS011;4872;48.316;10.650;2022-08-21T17:59:02;3.23;;;2.30;;
9667;SDS011;4872;48.316;10.650;2022-08-21T18:01:31;4.47;;;2.77;;
9667;SDS011;4872;48.316;10.650;2022-08-21T18:04:01;5.57;;;2.97;;
9667;SDS011;4872;48.316;10.650;2022-08-21T18:06:30;4.77;;;2.67;;
9667;SDS011;4872;48.316;10.650;2022-08-21T18:08:57;3.77;;;2.97;;
9667;SDS011;4872;48.316;10.650;2022-08-21T18:11:26;4.17;;;2.77;;
9667;SDS011;4872;48.316;10.650;2022-08-21T18:13:54;3.50;;;2.70;;
9667;SDS011;4872;48.316;10.650;2022-08-21T18:16:25;4.53;;;2.87;;
9667;SDS011;4872;48.316;10.650;2022-08-21T18:18:52;4.17;;;2.93;;
9667;SDS011;4872;48.316;10.650;2022-08-21T18:21:19;4.80;;;2.90;;
9667;SDS011;4872;48.316;10.650;2022-08-21T18:23:46;8.47;;;3.37;;
9667;SDS011;4872;48.316;10.650;2022-08-21T18:26:14;3.97;;;3.00;;
9667;SDS011;4872;48.316;10.650;2022-08-21T18:28:47;8.23;;;3.47;;
9667;SDS011;4872;48.316;10.650;2022-08-21T18:31:14;4.47;;;2.80;;
9667;SDS011;4872;48.316;10.650;2022-08-21T18:33:42;6.07;;;3.40;;
9667;SDS011;4872;48.316;10.650;2022-08-21T18:36:08;4.83;;;3.40;;
9667;SDS011;4872;48.316;10.650;2022-08-21T18:38:35;3.30;;;3.00;;
9667;SDS011;4872;48.316;10.650;2022-08-21T18:41:02;5.37;;;3.40;;
9667;SDS011;4872;48.316;10.650;2022-08-21T18:43:29;4.37;;;2.87;;
9667;SDS011;4872;48.316;10.650;2022-08-21T18:45:57;3.73;;;2.70;;
9667;SDS011;4872;48.316;10.650;2022-08-21T18:48:24;4.03;;;3.20;;
9667;SDS011;4872;48.316;10.650;2022-08-21T18:50:51;3.07;;;2.77;;
9667;SDS011;4872;48.316;10.650;2022-08-21T18:53:17;3.30;;;2.97;;
9667;SDS011;4872;48.316;10.650;2022-08-21T18:55:44;3.80;;;2.90;;
9667;SDS011;4872;48.316;10.650;2022-08-21T18:58:12;3.63;;;2.93;;
9667;SDS011;4872;48.316;10.650;2022-08-21T19:00:41;3.67;;;3.27;;
9667;SDS011;4872;48.316;10.650;2022-08-21T19:03:12;4.27;;;3.10;;
9667;SDS011;4872;48.316;10.650;2022-08-21T19:05:40;4.77;;;3.00;;
9667;SDS011;4872;48.316;10.650;2022-08-21T19:08:09;5.03;;;3.80;;
9667;SDS011;4872;48.316;10.650;2022-08-21T19:10:37;4.60;;;3.43;;
9667;SDS011;4872;48.316;10.650;2022-08-21T19:13:04;4.67;;;3.23;;
9667;SDS011;4872;48.316;10.650;2022-08-21T19:15:31;4.37;;;3.10;;
9667;SDS011;4872;48.316;10.650;2022-08-21T19:17:59;4.00;;;3.30;;
9667;SDS011;4872;48.316;10.650;2022-08-21T19:20:30;4.63;;;3.30;;
9667;SDS011;4872;48.316;10.650;2022-08-21T19:23:01;5.30;;;3.40;;
9667;SDS011;4872;48.316;10.650;2022-08-21T19:25:28;3.63;;;3.23;;
9667;SDS011;4872;48.316;10.650;2022-08-21T19:27:56;4.37;;;3.03;;
9667;SDS011;4872;48.316;10.650;2022-08-21T19:30:23;4.20;;;3.63;;